Time;durP1;ratioP1;P1;durP2;ratioP2;P2;SDS_P1;SDS_P2;PMS_P1;PMS_P2;Temp;Humidity;BMP_temperature;BMP_pressure;BME280_temperature;BME280_humidity;BME280_pressure;Samples;Min_cycle;Max_cycle;Signal;HPM_P1;HPM_P2
2022/09/28 00:02:07;;;;;;;1999.90;999.90;;;;;;;;;;5023367;28;20400;-73
2022/09/28 00:04:36;;;;;;;1999.90;999.90;;;;;;;;;;5045546;28;21232;-74
2022/09/28 00:07:04;;;;;;;1999.90;999.90;;;;;;;;;;5039176;28;20399;-74
2022/09/28 00:09:32;;;;;;;1999.90;999.90;;;;;;;;;;5039997;28;20396;-73
2022/09/28 00:12:00;;;;;;;1999.90;999.90;;;;;;;;;;5039325;28;20832;-74
2022/09/28 00:14:28;;;;;;;1999.90;999.90;;;;;;;;;;5042900;28;20428;-74
2022/09/28 00:16:55;;;;;;;1999.90;999.90;;;;;;;;;;5037585;28;20483;-74
2022/09/28 00:19:23;;;;;;;1999.90;999.90;;;;;;;;;;5039040;28;20439;-72
2022/09/28 00:21:52;;;;;;;1999.90;999.90;;;;;;;;;;5042624;28;20501;-75
2022/09/28 00:24:20;;;;;;;1999.90;999.90;;;;;;;;;;5040019;28;20406;-74
2022/09/28 00:26:54;;;;;;;1999.90;999.90;;;;;;;;;;5022774;28;20390;-75
2022/09/28 00:29:23;;;;;;;1999.90;999.90;;;;;;;;;;5040671;28;20493;-75
2022/09/28 00:31:52;;;;;;;1999.90;999.90;;;;;;;;;;5049989;28;20394;-74
2022/09/28 00:34:19;;;;;;;1999.90;999.90;;;;;;;;;;5048287;28;20407;-74
2022/09/28 00:36:48;;;;;;;1999.90;999.90;;;;;;;;;;5042981;28;20409;-74
2022/09/28 00:39:17;;;;;;;1999.90;999.90;;;;;;;;;;5038345;28;20414;-75
2022/09/28 00:41:45;;;;;;;1999.90;999.90;;;;;;;;;;5037099;28;20392;-74
2022/09/28 00:44:31;;;;;;;1999.90;999.90;;;;;;;;;;5039786;28;20443;-74
2022/09/28 00:47:01;;;;;;;1999.90;999.90;;;;;;;;;;5044095;28;20396;-75
2022/09/28 00:49:33;;;;;;;1999.90;999.90;;;;;;;;;;5035904;28;20411;-75
2022/09/28 00:52:04;;;;;;;1999.90;999.90;;;;;;;;;;5057892;28;20457;-74
2022/09/28 00:54:34;;;;;;;1999.90;999.90;;;;;;;;;;5019550;28;20416;-74
2022/09/28 00:57:02;;;;;;;1999.90;999.90;;;;;;;;;;5038262;28;20409;-74
2022/09/28 00:59:31;;;;;;;1999.90;999.90;;;;;;;;;;5037153;28;20491;-74
2022/09/28 01:01:59;;;;;;;1999.90;999.90;;;;;;;;;;5044893;28;20908;-74
2022/09/28 01:04:27;;;;;;;1999.90;999.90;;;;;;;;;;5041253;28;20474;-74
2022/09/28 01:06:57;;;;;;;1999.90;999.90;;;;;;;;;;5023424;28;20513;-75
2022/09/28 01:09:25;;;;;;;1999.90;999.90;;;;;;;;;;5037913;28;20416;-74
2022/09/28 01:11:55;;;;;;;1999.90;999.90;;;;;;;;;;5024643;28;20775;-73
2022/09/28 01:14:24;;;;;;;1999.90;999.90;;;;;;;;;;5026862;28;20420;-74
2022/09/28 01:16:57;;;;;;;1999.90;999.90;;;;;;;;;;5023567;28;20395;-74
2022/09/28 01:19:50;;;;;;;1999.90;999.90;;;;;;;;;;5023969;28;20412;-73
2022/09/28 01:22:24;;;;;;;1999.90;999.90;;;;;;;;;;5005621;28;20409;-74
2022/09/28 01:24:56;;;;;;;1999.90;999.90;;;;;;;;;;5038397;28;20918;-74
2022/09/28 01:27:27;;;;;;;1999.90;999.90;;;;;;;;;;5034853;28;21180;-75
2022/09/28 01:30:00;;;;;;;1999.90;999.90;;;;;;;;;;5036488;28;20463;-75
2022/09/28 01:32:34;;;;;;;1999.90;999.90;;;;;;;;;;5020734;28;20416;-74
2022/09/28 01:35:05;;;;;;;1999.90;999.90;;;;;;;;;;5021540;28;20422;-74
2022/09/28 01:37:36;;;;;;;1999.90;999.90;;;;;;;;;;5040011;28;20980;-75
2022/09/28 01:40:04;;;;;;;1999.90;999.90;;;;;;;;;;5023514;28;20412;-75
2022/09/28 01:42:35;;;;;;;1999.90;999.90;;;;;;;;;;5026668;28;20471;-75
2022/09/28 01:45:06;;;;;;;1999.90;999.90;;;;;;;;;;5027192;28;20414;-75
2022/09/28 01:47:37;;;;;;;1999.90;999.90;;;;;;;;;;5027604;28;20385;-74
2022/09/28 01:50:08;;;;;;;1999.90;999.90;;;;;;;;;;5041639;28;20402;-73
2022/09/28 01:52:43;;;;;;;1999.90;999.90;;;;;;;;;;5042220;28;20881;-74
2022/09/28 01:55:13;;;;;;;1999.90;999.90;;;;;;;;;;5045524;28;20418;-74
2022/09/28 01:57:45;;;;;;;1999.90;999.90;;;;;;;;;;5023823;28;20479;-73
2022/09/28 02:00:14;;;;;;;1999.90;999.90;;;;;;;;;;5056887;28;20398;-73
2022/09/28 02:02:47;;;;;;;1999.90;999.90;;;;;;;;;;5042133;28;20418;-73
2022/09/28 02:05:19;;;;;;;1999.90;999.90;;;;;;;;;;5040069;28;20510;-73
2022/09/28 02:07:53;;;;;;;1999.90;999.90;;;;;;;;;;5042009;28;20430;-73
2022/09/28 02:10:24;;;;;;;1999.90;999.90;;;;;;;;;;5055826;28;20835;-73
2022/09/28 02:12:56;;;;;;;1999.90;999.90;;;;;;;;;;5021588;28;20397;-74
2022/09/28 02:15:42;;;;;;;1999.90;999.90;;;;;;;;;;5044316;28;20435;-74
2022/09/28 02:18:10;;;;;;;1999.90;999.90;;;;;;;;;;5039800;28;20487;-74
2022/09/28 02:20:38;;;;;;;1999.90;999.90;;;;;;;;;;5057399;28;20395;-74
2022/09/28 02:23:07;;;;;;;1999.90;999.90;;;;;;;;;;5039530;28;20923;-74
2022/09/28 02:25:38;;;;;;;1999.90;999.90;;;;;;;;;;5041318;28;20435;-74
2022/09/28 02:28:10;;;;;;;1999.90;999.90;;;;;;;;;;5037501;28;21169;-74
2022/09/28 02:30:39;;;;;;;1999.90;999.90;;;;;;;;;;5041206;28;20422;-74
2022/09/28 02:33:10;;;;;;;1999.90;999.90;;;;;;;;;;5022525;28;20392;-74
2022/09/28 02:35:39;;;;;;;1999.90;999.90;;;;;;;;;;5041099;28;20539;-73
2022/09/28 02:38:07;;;;;;;1999.90;999.90;;;;;;;;;;5034896;28;21746;-74
2022/09/28 02:40:36;;;;;;;1999.90;999.90;;;;;;;;;;5023203;28;20398;-73
2022/09/28 02:43:12;;;;;;;1999.90;999.90;;;;;;;;;;5038788;28;20671;-75
2022/09/28 02:45:51;;;;;;;1999.90;999.90;;;;;;;;;;5023619;28;20573;-74
2022/09/28 02:48:35;;;;;;;1999.90;999.90;;;;;;;;;;5016172;28;20384;-74
2022/09/28 02:51:17;;;;;;;1999.90;999.90;;;;;;;;;;5042146;28;20416;-74
2022/09/28 02:53:51;;;;;;;1999.90;999.90;;;;;;;;;;5022307;28;20939;-74
2022/09/28 02:56:29;;;;;;;1999.90;999.90;;;;;;;;;;5026033;28;20443;-74
2022/09/28 02:59:05;;;;;;;1999.90;999.90;;;;;;;;;;5022160;28;20975;-74
2022/09/28 03:01:35;;;;;;;1999.90;999.90;;;;;;;;;;5041958;28;20396;-75
2022/09/28 03:04:07;;;;;;;1999.90;999.90;;;;;;;;;;5054554;28;20416;-74
2022/09/28 03:06:39;;;;;;;1999.90;999.90;;;;;;;;;;5026403;28;21302;-74
2022/09/28 03:09:09;;;;;;;1999.90;999.90;;;;;;;;;;5041346;28;20484;-74
2022/09/28 03:11:39;;;;;;;1999.90;999.90;;;;;;;;;;5039701;28;20392;-74
2022/09/28 03:14:09;;;;;;;1999.90;999.90;;;;;;;;;;5022948;28;20404;-74
2022/09/28 03:16:46;;;;;;;1999.90;999.90;;;;;;;;;;5025033;28;20399;-74
2022/09/28 03:19:15;;;;;;;1999.90;999.90;;;;;;;;;;5037614;28;20877;-74
2022/09/28 03:21:43;;;;;;;1999.90;999.90;;;;;;;;;;5041179;28;21268;-73
2022/09/28 03:24:11;;;;;;;1999.90;999.90;;;;;;;;;;5038226;28;20404;-74
2022/09/28 03:26:40;;;;;;;1999.90;999.90;;;;;;;;;;5028834;28;20474;-72
2022/09/28 03:29:09;;;;;;;1999.90;999.90;;;;;;;;;;5042761;28;21576;-74
2022/09/28 03:31:38;;;;;;;1999.90;999.90;;;;;;;;;;5041372;28;20404;-74
2022/09/28 03:34:07;;;;;;;1999.90;999.90;;;;;;;;;;5036053;28;20405;-74
2022/09/28 03:36:34;;;;;;;1999.90;999.90;;;;;;;;;;5025288;28;20406;-75
2022/09/28 03:39:03;;;;;;;1999.90;999.90;;;;;;;;;;5020139;28;20394;-75
2022/09/28 03:41:30;;;;;;;1999.90;999.90;;;;;;;;;;5025546;28;20396;-74
2022/09/28 03:43:58;;;;;;;1999.90;999.90;;;;;;;;;;5044987;28;20395;-75
2022/09/28 03:46:29;;;;;;;1999.90;999.90;;;;;;;;;;5039173;28;20420;-75
2022/09/28 03:49:02;;;;;;;1999.90;999.90;;;;;;;;;;5037591;28;20508;-74
2022/09/28 03:51:30;;;;;;;1999.90;999.90;;;;;;;;;;5023427;28;20948;-73
2022/09/28 03:53:58;;;;;;;1999.90;999.90;;;;;;;;;;5036977;28;20867;-73
2022/09/28 03:56:25;;;;;;;1999.90;999.90;;;;;;;;;;5024875;28;20396;-73
2022/09/28 03:58:53;;;;;;;1999.90;999.90;;;;;;;;;;5040962;28;20411;-74
2022/09/28 04:01:21;;;;;;;1999.90;999.90;;;;;;;;;;5022243;28;20419;-73
2022/09/28 04:03:54;;;;;;;1999.90;999.90;;;;;;;;;;5037539;28;20411;-73
2022/09/28 04:06:22;;;;;;;1999.90;999.90;;;;;;;;;;5041622;28;20424;-74
2022/09/28 04:08:50;;;;;;;1999.90;999.90;;;;;;;;;;5043377;28;20407;-74
2022/09/28 04:11:18;;;;;;;1999.90;999.90;;;;;;;;;;5028299;28;20621;-74
2022/09/28 04:13:47;;;;;;;1999.90;999.90;;;;;;;;;;5037604;28;20405;-75
2022/09/28 04:16:16;;;;;;;1999.90;999.90;;;;;;;;;;5041813;28;20412;-74
2022/09/28 04:18:54;;;;;;;1999.90;999.90;;;;;;;;;;5023703;28;21155;-74
2022/09/28 04:21:45;;;;;;;1999.90;999.90;;;;;;;;;;5039026;28;20385;-75
2022/09/28 04:24:14;;;;;;;1999.90;999.90;;;;;;;;;;5038632;28;20392;-73
2022/09/28 04:26:42;;;;;;;1999.90;999.90;;;;;;;;;;5017672;28;20524;-74
2022/09/28 04:29:16;;;;;;;1999.90;999.90;;;;;;;;;;5021769;28;20381;-73
2022/09/28 04:31:55;;;;;;;1999.90;999.90;;;;;;;;;;5021770;28;20390;-74
2022/09/28 04:34:33;;;;;;;1999.90;999.90;;;;;;;;;;5024821;28;20235;-73
2022/09/28 04:37:05;;;;;;;1999.90;999.90;;;;;;;;;;5024572;28;20316;-72
2022/09/28 04:39:33;;;;;;;1999.90;999.90;;;;;;;;;;5044768;28;20244;-75
2022/09/28 04:42:00;;;;;;;1999.90;999.90;;;;;;;;;;5018620;28;20323;-72
2022/09/28 04:44:28;;;;;;;1999.90;999.90;;;;;;;;;;5042311;28;20725;-73
2022/09/28 04:47:01;;;;;;;1999.90;999.90;;;;;;;;;;5025456;28;20231;-73
2022/09/28 04:49:34;;;;;;;1999.90;999.90;;;;;;;;;;5051907;28;20316;-73
2022/09/28 04:52:10;;;;;;;1999.90;999.90;;;;;;;;;;5024016;28;20227;-74
2022/09/28 04:54:44;;;;;;;1999.90;999.90;;;;;;;;;;5024214;28;20231;-73
2022/09/28 04:57:12;;;;;;;1999.90;999.90;;;;;;;;;;5038233;28;20235;-74
2022/09/28 04:59:41;;;;;;;1999.90;999.90;;;;;;;;;;5030387;28;20236;-74
2022/09/28 05:02:09;;;;;;;1999.90;999.90;;;;;;;;;;5027969;28;20235;-74
2022/09/28 05:04:57;;;;;;;1999.90;999.90;;;;;;;;;;5040904;28;20792;-73
2022/09/28 05:07:34;;;;;;;1999.90;999.90;;;;;;;;;;5045322;28;20232;-72
2022/09/28 05:10:04;;;;;;;1999.90;999.90;;;;;;;;;;5025061;28;20239;-72
2022/09/28 05:12:32;;;;;;;1999.90;999.90;;;;;;;;;;5028628;28;20228;-72
2022/09/28 05:15:00;;;;;;;1999.90;999.90;;;;;;;;;;5042481;28;20310;-73
2022/09/28 05:17:28;;;;;;;1999.90;999.90;;;;;;;;;;5023389;28;20613;-72
2022/09/28 05:20:08;;;;;;;1999.90;999.90;;;;;;;;;;5031210;28;20231;-73
2022/09/28 05:22:36;;;;;;;1999.90;999.90;;;;;;;;;;5013019;28;20287;-74
2022/09/28 05:25:05;;;;;;;1999.90;999.90;;;;;;;;;;5030369;28;20319;-71
2022/09/28 05:27:45;;;;;;;1999.90;999.90;;;;;;;;;;5036211;28;20320;-73
2022/09/28 05:30:34;;;;;;;1999.90;999.90;;;;;;;;;;5027554;28;20318;-75
2022/09/28 05:33:20;;;;;;;1999.90;999.90;;;;;;;;;;5038735;28;20227;-74
2022/09/28 05:35:57;;;;;;;1999.90;999.90;;;;;;;;;;5033048;28;20606;-74
2022/09/28 05:38:28;;;;;;;1999.90;999.90;;;;;;;;;;5015085;28;20236;-74
2022/09/28 05:40:56;;;;;;;1999.90;999.90;;;;;;;;;;5017969;28;20630;-74
2022/09/28 05:43:24;;;;;;;1999.90;999.90;;;;;;;;;;5036521;28;20335;-74
2022/09/28 05:45:52;;;;;;;1999.90;999.90;;;;;;;;;;5036226;28;20307;-74
2022/09/28 05:48:22;;;;;;;1999.90;999.90;;;;;;;;;;5037058;28;21235;-73
2022/09/28 05:50:50;;;;;;;1999.90;999.90;;;;;;;;;;5039543;28;20703;-73
2022/09/28 05:53:19;;;;;;;1999.90;999.90;;;;;;;;;;5018991;28;20232;-73
2022/09/28 05:55:47;;;;;;;1999.90;999.90;;;;;;;;;;5021002;28;20221;-74
2022/09/28 05:58:15;;;;;;;1999.90;999.90;;;;;;;;;;5035481;28;20526;-75
2022/09/28 06:00:43;;;;;;;1999.90;999.90;;;;;;;;;;5034468;28;20881;-73
2022/09/28 06:03:12;;;;;;;1999.90;999.90;;;;;;;;;;5035887;28;20734;-74
2022/09/28 06:05:40;;;;;;;1999.90;999.90;;;;;;;;;;5018861;28;20239;-75
2022/09/28 06:08:09;;;;;;;1999.90;999.90;;;;;;;;;;5032710;28;20419;-75
2022/09/28 06:10:39;;;;;;;1999.90;999.90;;;;;;;;;;5030680;28;20483;-73
2022/09/28 06:13:07;;;;;;;1999.90;999.90;;;;;;;;;;5020784;28;20507;-75
2022/09/28 06:15:35;;;;;;;1999.90;999.90;;;;;;;;;;5041680;28;20399;-75
2022/09/28 06:18:04;;;;;;;1999.90;999.90;;;;;;;;;;5019848;28;20546;-72
2022/09/28 06:20:39;;;;;;;1999.90;999.90;;;;;;;;;;5047799;28;20403;-79
2022/09/28 06:23:19;;;;;;;1999.90;999.90;;;;;;;;;;5037965;28;20400;-78
2022/09/28 06:25:48;;;;;;;1999.90;999.90;;;;;;;;;;5038701;28;20403;-80
2022/09/28 06:28:16;;;;;;;1999.90;999.90;;;;;;;;;;5021151;28;20404;-82
2022/09/28 06:30:46;;;;;;;1999.90;999.90;;;;;;;;;;5043857;28;20388;-82
2022/09/28 06:33:16;;;;;;;1999.90;999.90;;;;;;;;;;5059242;28;20401;-80
2022/09/28 06:35:44;;;;;;;1999.90;999.90;;;;;;;;;;5057253;28;20402;-79
2022/09/28 06:38:12;;;;;;;1999.90;999.90;;;;;;;;;;5021792;28;20451;-79
2022/09/28 06:40:40;;;;;;;1999.90;999.90;;;;;;;;;;5028820;28;20486;-81
2022/09/28 06:43:11;;;;;;;1999.90;999.90;;;;;;;;;;5037184;28;20487;-80
2022/09/28 06:45:57;;;;;;;1999.90;999.90;;;;;;;;;;5040448;28;20433;-77
2022/09/28 06:48:45;;;;;;;1999.90;999.90;;;;;;;;;;5042742;28;20412;-78
2022/09/28 06:51:17;;;;;;;1999.90;999.90;;;;;;;;;;5045285;28;20393;-79
2022/09/28 06:53:55;;;;;;;1999.90;999.90;;;;;;;;;;5071564;28;20415;-79
2022/09/28 06:56:41;;;;;;;1999.90;999.90;;;;;;;;;;5046437;28;20392;-77
2022/09/28 06:59:11;;;;;;;1999.90;999.90;;;;;;;;;;5030242;28;23088;-79
2022/09/28 07:01:39;;;;;;;1999.90;999.90;;;;;;;;;;5033435;28;21016;-78
2022/09/28 07:04:27;;;;;;;1999.90;999.90;;;;;;;;;;5032411;28;20482;-78
2022/09/28 07:07:13;;;;;;;1999.90;999.90;;;;;;;;;;5042480;28;20459;-78
2022/09/28 07:10:06;;;;;;;1999.90;999.90;;;;;;;;;;5037707;28;20371;-77
2022/09/28 07:13:01;;;;;;;1999.90;999.90;;;;;;;;;;5038826;28;20408;-78
2022/09/28 07:15:35;;;;;;;1999.90;999.90;;;;;;;;;;5020861;28;20862;-77
2022/09/28 07:18:05;;;;;;;1999.90;999.90;;;;;;;;;;5032449;28;20407;-76
2022/09/28 07:20:33;;;;;;;1999.90;999.90;;;;;;;;;;5037747;28;20422;-76
2022/09/28 07:23:17;;;;;;;1999.90;999.90;;;;;;;;;;5036280;28;20475;-76
2022/09/28 07:26:05;;;;;;;1999.90;999.90;;;;;;;;;;5029606;28;20396;-78
2022/09/28 07:29:16;;;;;;;1999.90;999.90;;;;;;;;;;4993747;28;20907;-77
2022/09/28 07:31:57;;;;;;;1999.90;999.90;;;;;;;;;;4981206;28;20463;-76
2022/09/28 07:34:40;;;;;;;1999.90;999.90;;;;;;;;;;5020447;28;20459;-76
2022/09/28 07:37:12;;;;;;;1999.90;999.90;;;;;;;;;;5024118;28;20396;-77
2022/09/28 07:42:30;;;;;;;1999.90;999.90;;;;;;;;;;5023538;28;20857;-78
2022/09/28 07:44:59;;;;;;;1999.90;999.90;;;;;;;;;;5055050;28;20412;-78
2022/09/28 07:47:28;;;;;;;1999.90;999.90;;;;;;;;;;5038271;28;20400;-79
2022/09/28 07:50:20;;;;;;;1999.90;999.90;;;;;;;;;;5043529;28;20892;-80
2022/09/28 07:53:08;;;;;;;1999.90;999.90;;;;;;;;;;5035695;28;20408;-80
2022/09/28 07:55:50;;;;;;;1999.90;999.90;;;;;;;;;;5020466;28;20400;-79
2022/09/28 07:58:42;;;;;;;1999.90;999.90;;;;;;;;;;5021879;28;20739;-80
2022/09/28 08:01:40;;;;;;;1999.90;999.90;;;;;;;;;;5036102;28;21827;-77
2022/09/28 08:04:15;;;;;;;1999.90;999.90;;;;;;;;;;5030710;28;21498;-83
2022/09/28 08:06:47;;;;;;;1999.90;999.90;;;;;;;;;;5030488;28;20420;-77
2022/09/28 08:09:18;;;;;;;1999.90;999.90;;;;;;;;;;5034621;28;20495;-78
2022/09/28 08:12:06;;;;;;;1999.90;999.90;;;;;;;;;;5035473;28;20393;-77
2022/09/28 08:14:41;;;;;;;1999.90;999.90;;;;;;;;;;5021720;28;20416;-79
2022/09/28 08:17:35;;;;;;;1999.90;999.90;;;;;;;;;;5028219;28;20776;-76
2022/09/28 08:22:55;;;;;;;1999.90;999.90;;;;;;;;;;5019830;28;20964;-80
2022/09/28 08:25:23;;;;;;;1999.90;999.90;;;;;;;;;;5055844;28;20408;-79
2022/09/28 08:27:51;;;;;;;1999.90;999.90;;;;;;;;;;5055813;28;20474;-78
2022/09/28 08:30:20;;;;;;;1999.90;999.90;;;;;;;;;;5028542;28;20338;-81
2022/09/28 08:32:58;;;;;;;1999.90;999.90;;;;;;;;;;5018222;28;20911;-80
2022/09/28 08:35:43;;;;;;;1999.90;999.90;;;;;;;;;;5036311;28;21246;-78
2022/09/28 08:38:15;;;;;;;1999.90;999.90;;;;;;;;;;5033301;28;20229;-79
2022/09/28 08:41:03;;;;;;;1999.90;999.90;;;;;;;;;;5039073;28;20445;-80
2022/09/28 08:44:01;;;;;;;1999.90;999.90;;;;;;;;;;5018678;28;20259;-80
2022/09/28 08:46:49;;;;;;;1999.90;999.90;;;;;;;;;;5037938;28;20854;-77
2022/09/28 08:49:40;;;;;;;1999.90;999.90;;;;;;;;;;5027073;28;20471;-80
2022/09/28 08:52:32;;;;;;;1999.90;999.90;;;;;;;;;;5038215;28;20317;-78
2022/09/28 08:55:22;;;;;;;1999.90;999.90;;;;;;;;;;5039162;28;20294;-75
2022/09/28 08:57:53;;;;;;;1999.90;999.90;;;;;;;;;;5020741;28;20420;-76
2022/09/28 09:00:23;;;;;;;1999.90;999.90;;;;;;;;;;5035600;28;21115;-75
2022/09/28 09:02:51;;;;;;;1999.90;999.90;;;;;;;;;;5018473;28;20233;-75
2022/09/28 09:05:27;;;;;;;1999.90;999.90;;;;;;;;;;5041823;28;20233;-76
2022/09/28 09:08:16;;;;;;;1999.90;999.90;;;;;;;;;;5040109;28;20227;-75
2022/09/28 09:10:49;;;;;;;1999.90;999.90;;;;;;;;;;5024386;28;20459;-76
2022/09/28 09:13:33;;;;;;;1999.90;999.90;;;;;;;;;;5032430;28;20396;-75
2022/09/28 09:16:09;;;;;;;1999.90;999.90;;;;;;;;;;5035792;28;20493;-75
2022/09/28 09:19:03;;;;;;;1999.90;999.90;;;;;;;;;;5031659;28;20425;-75
2022/09/28 09:21:54;;;;;;;1999.90;999.90;;;;;;;;;;5020945;28;20590;-75
2022/09/28 09:24:26;;;;;;;1999.90;999.90;;;;;;;;;;5038978;28;20228;-75
2022/09/28 09:27:01;;;;;;;1999.90;999.90;;;;;;;;;;5035472;28;20235;-76
2022/09/28 09:29:35;;;;;;;1999.90;999.90;;;;;;;;;;5025437;28;20274;-75
2022/09/28 09:32:13;;;;;;;1999.90;999.90;;;;;;;;;;5040971;28;20224;-76
2022/09/28 09:34:56;;;;;;;1999.90;999.90;;;;;;;;;;5028938;28;20261;-75
2022/09/28 09:38:06;;;;;;;1999.90;999.90;;;;;;;;;;5037260;28;20232;-76
2022/09/28 09:40:53;;;;;;;1999.90;999.90;;;;;;;;;;5032653;28;20250;-75
2022/09/28 09:43:45;;;;;;;1999.90;999.90;;;;;;;;;;5033108;28;20681;-76
2022/09/28 09:46:42;;;;;;;1999.90;999.90;;;;;;;;;;5040344;28;20426;-75
2022/09/28 09:49:34;;;;;;;1999.90;999.90;;;;;;;;;;5036424;28;20435;-75
2022/09/28 09:52:06;;;;;;;1999.90;999.90;;;;;;;;;;5023592;28;20411;-72
2022/09/28 09:54:36;;;;;;;1999.90;999.90;;;;;;;;;;5039196;28;20389;-72
2022/09/28 09:57:10;;;;;;;1999.90;999.90;;;;;;;;;;5038811;28;20467;-72
2022/09/28 09:59:44;;;;;;;1999.90;999.90;;;;;;;;;;5013063;28;20247;-71
2022/09/28 10:02:23;;;;;;;1999.90;999.90;;;;;;;;;;5055078;28;20717;-70
2022/09/28 10:05:01;;;;;;;1999.90;999.90;;;;;;;;;;5032823;28;20231;-71
2022/09/28 10:07:38;;;;;;;1999.90;999.90;;;;;;;;;;5041663;28;20262;-70
2022/09/28 10:10:12;;;;;;;1999.90;999.90;;;;;;;;;;5037132;28;20396;-70
2022/09/28 10:12:48;;;;;;;1999.90;999.90;;;;;;;;;;5034696;28;20235;-71
2022/09/28 10:15:19;;;;;;;1999.90;999.90;;;;;;;;;;5040897;28;20337;-71
2022/09/28 10:18:00;;;;;;;1999.90;999.90;;;;;;;;;;5025658;28;20232;-71
2022/09/28 10:20:47;;;;;;;1999.90;999.90;;;;;;;;;;5041403;28;20462;-71
2022/09/28 10:23:24;;;;;;;1999.90;999.90;;;;;;;;;;5041255;28;20797;-71
2022/09/28 10:25:53;;;;;;;1999.90;999.90;;;;;;;;;;5024662;28;20235;-71
2022/09/28 10:28:26;;;;;;;1999.90;999.90;;;;;;;;;;5019147;28;20252;-70
2022/09/28 10:30:53;;;;;;;1999.90;999.90;;;;;;;;;;5023364;28;20235;-72
2022/09/28 10:33:29;;;;;;;1999.90;999.90;;;;;;;;;;5026302;28;20328;-70
2022/09/28 10:35:59;;;;;;;1999.90;999.90;;;;;;;;;;5036373;28;20224;-71
2022/09/28 10:38:28;;;;;;;1999.90;999.90;;;;;;;;;;5037094;28;20225;-71
2022/09/28 10:41:09;;;;;;;1999.90;999.90;;;;;;;;;;5040744;28;20239;-71
2022/09/28 10:44:04;;;;;;;1999.90;999.90;;;;;;;;;;5023598;28;20228;-70
2022/09/28 10:46:38;;;;;;;1999.90;999.90;;;;;;;;;;5043339;28;20784;-70
2022/09/28 10:49:14;;;;;;;1999.90;999.90;;;;;;;;;;5025320;28;20236;-70
2022/09/28 10:51:46;;;;;;;1999.90;999.90;;;;;;;;;;5022863;28;20364;-70
2022/09/28 10:54:18;;;;;;;1999.90;999.90;;;;;;;;;;5026205;28;20236;-71
2022/09/28 10:56:51;;;;;;;1999.90;999.90;;;;;;;;;;5060494;28;20260;-70
2022/09/28 10:59:38;;;;;;;1999.90;999.90;;;;;;;;;;5025360;28;20420;-70
2022/09/28 11:02:24;;;;;;;1999.90;999.90;;;;;;;;;;5041773;28;20229;-71
2022/09/28 11:04:57;;;;;;;1999.90;999.90;;;;;;;;;;5040608;28;20224;-70
2022/09/28 11:07:29;;;;;;;1999.90;999.90;;;;;;;;;;5019316;28;20358;-70
2022/09/28 11:09:57;;;;;;;1999.90;999.90;;;;;;;;;;5020004;28;20608;-70
2022/09/28 11:12:27;;;;;;;1999.90;999.90;;;;;;;;;;5040720;28;20222;-71
2022/09/28 11:14:58;;;;;;;1999.90;999.90;;;;;;;;;;5041202;28;20232;-70
2022/09/28 11:17:28;;;;;;;1999.90;999.90;;;;;;;;;;5047613;28;20291;-70
2022/09/28 11:19:56;;;;;;;1999.90;999.90;;;;;;;;;;5050214;28;21780;-71
2022/09/28 11:22:27;;;;;;;1999.90;999.90;;;;;;;;;;5051530;28;20385;-71
2022/09/28 11:25:12;;;;;;;1999.90;999.90;;;;;;;;;;5036049;28;20999;-70
2022/09/28 11:27:40;;;;;;;1999.90;999.90;;;;;;;;;;5059922;28;20224;-70
2022/09/28 11:30:21;;;;;;;1999.90;999.90;;;;;;;;;;5047784;28;20502;-70
2022/09/28 11:33:11;;;;;;;1999.90;999.90;;;;;;;;;;5069238;28;20689;-70
2022/09/28 11:36:11;;;;;;;1999.90;999.90;;;;;;;;;;5040299;28;20224;-71
2022/09/28 11:38:40;;;;;;;1999.90;999.90;;;;;;;;;;5029040;28;21096;-71
2022/09/28 11:41:23;;;;;;;1999.90;999.90;;;;;;;;;;5032960;28;20242;-71
2022/09/28 11:43:58;;;;;;;1999.90;999.90;;;;;;;;;;5049049;28;20397;-70
2022/09/28 11:46:32;;;;;;;1999.90;999.90;;;;;;;;;;5030631;28;20247;-71
2022/09/28 11:49:11;;;;;;;1999.90;999.90;;;;;;;;;;5037108;28;20315;-69
2022/09/28 11:51:41;;;;;;;1999.90;999.90;;;;;;;;;;5050346;28;20789;-70
2022/09/28 11:54:13;;;;;;;1999.90;999.90;;;;;;;;;;5042352;28;20271;-71
2022/09/28 11:56:43;;;;;;;1999.90;999.90;;;;;;;;;;5049002;28;20233;-70
2022/09/28 11:59:14;;;;;;;1999.90;999.90;;;;;;;;;;5049146;28;20229;-71
2022/09/28 12:01:50;;;;;;;1999.90;999.90;;;;;;;;;;5033463;28;20363;-71
2022/09/28 12:04:33;;;;;;;1999.90;999.90;;;;;;;;;;5029258;28;20236;-70
2022/09/28 12:07:05;;;;;;;1999.90;999.90;;;;;;;;;;5031544;28;20234;-70
2022/09/28 12:09:36;;;;;;;1999.90;999.90;;;;;;;;;;5050170;28;20233;-71
2022/09/28 12:12:23;;;;;;;1999.90;999.90;;;;;;;;;;5048086;28;20232;-70
2022/09/28 12:14:55;;;;;;;1999.90;999.90;;;;;;;;;;5042847;28;20355;-71
2022/09/28 12:17:26;;;;;;;1999.90;999.90;;;;;;;;;;5048163;28;20268;-71
2022/09/28 12:19:56;;;;;;;1999.90;999.90;;;;;;;;;;5054586;28;20235;-71
2022/09/28 12:22:30;;;;;;;1999.90;999.90;;;;;;;;;;5052268;28;20236;-71
2022/09/28 12:24:58;;;;;;;1999.90;999.90;;;;;;;;;;5050723;28;20232;-70
2022/09/28 12:27:27;;;;;;;1999.90;999.90;;;;;;;;;;5053668;28;20228;-71
2022/09/28 12:29:58;;;;;;;1999.90;999.90;;;;;;;;;;5056751;28;21121;-71
2022/09/28 12:32:29;;;;;;;1999.90;999.90;;;;;;;;;;5043999;28;20231;-71
2022/09/28 12:34:57;;;;;;;1999.90;999.90;;;;;;;;;;5047419;28;20232;-71
2022/09/28 12:37:40;;;;;;;1999.90;999.90;;;;;;;;;;5051450;28;20354;-71
2022/09/28 12:40:23;;;;;;;1999.90;999.90;;;;;;;;;;5039129;28;20224;-71
2022/09/28 12:43:00;;;;;;;1999.90;999.90;;;;;;;;;;5024834;28;20240;-71
2022/09/28 12:45:36;;;;;;;1999.90;999.90;;;;;;;;;;5041739;28;20309;-71
2022/09/28 12:48:35;;;;;;;1999.90;999.90;;;;;;;;;;5046791;28;20790;-71
2022/09/28 12:51:08;;;;;;;1999.90;999.90;;;;;;;;;;5046914;28;21895;-70
2022/09/28 12:53:52;;;;;;;1999.90;999.90;;;;;;;;;;5050714;28;20434;-71
2022/09/28 12:56:24;;;;;;;1999.90;999.90;;;;;;;;;;5046257;28;20343;-71
2022/09/28 12:58:58;;;;;;;1999.90;999.90;;;;;;;;;;5047058;28;20240;-71
2022/09/28 13:01:36;;;;;;;1999.90;999.90;;;;;;;;;;5051952;28;20232;-71
2022/09/28 13:04:19;;;;;;;1999.90;999.90;;;;;;;;;;5041462;28;20396;-71
2022/09/28 13:06:50;;;;;;;1999.90;999.90;;;;;;;;;;5037632;28;20255;-71
2022/09/28 13:09:20;;;;;;;1999.90;999.90;;;;;;;;;;5043357;28;20237;-71
2022/09/28 13:11:54;;;;;;;1999.90;999.90;;;;;;;;;;5041875;28;20664;-71
2022/09/28 13:14:30;;;;;;;1999.90;999.90;;;;;;;;;;5042850;28;20443;-70
2022/09/28 13:17:00;;;;;;;1999.90;999.90;;;;;;;;;;5039494;28;20228;-71
2022/09/28 13:19:34;;;;;;;1999.90;999.90;;;;;;;;;;5039197;28;20224;-71
2022/09/28 13:22:16;;;;;;;1999.90;999.90;;;;;;;;;;5051778;28;20275;-71
2022/09/28 13:24:45;;;;;;;1999.90;999.90;;;;;;;;;;5043674;28;20752;-71
2022/09/28 13:27:16;;;;;;;1999.90;999.90;;;;;;;;;;5059567;28;20386;-70
2022/09/28 13:29:43;;;;;;;1999.90;999.90;;;;;;;;;;5039904;28;20224;-70
2022/09/28 13:32:11;;;;;;;1999.90;999.90;;;;;;;;;;5038397;28;21198;-71
2022/09/28 13:34:39;;;;;;;1999.90;999.90;;;;;;;;;;5034006;28;20263;-71
2022/09/28 13:37:10;;;;;;;1999.90;999.90;;;;;;;;;;5037997;28;20244;-71
2022/09/28 13:39:46;;;;;;;1999.90;999.90;;;;;;;;;;5039661;28;20236;-70
2022/09/28 13:42:23;;;;;;;1999.90;999.90;;;;;;;;;;5052541;28;20330;-71
2022/09/28 13:45:03;;;;;;;1999.90;999.90;;;;;;;;;;5039255;28;21329;-71
2022/09/28 13:47:46;;;;;;;1999.90;999.90;;;;;;;;;;5025675;28;20298;-71
2022/09/28 13:50:19;;;;;;;1999.90;999.90;;;;;;;;;;5026040;28;20231;-71
2022/09/28 13:52:52;;;;;;;1999.90;999.90;;;;;;;;;;5031799;28;20236;-71
2022/09/28 13:55:26;;;;;;;1999.90;999.90;;;;;;;;;;5036954;28;20232;-71
2022/09/28 13:57:55;;;;;;;1999.90;999.90;;;;;;;;;;5035225;28;20313;-72
2022/09/28 14:00:26;;;;;;;1999.90;999.90;;;;;;;;;;5041924;28;22163;-71
2022/09/28 14:02:57;;;;;;;1999.90;999.90;;;;;;;;;;5037025;28;20641;-72
2022/09/28 14:05:40;;;;;;;1999.90;999.90;;;;;;;;;;5035041;28;20849;-73
2022/09/28 14:08:26;;;;;;;1999.90;999.90;;;;;;;;;;5022217;28;20938;-71
2022/09/28 14:10:55;;;;;;;1999.90;999.90;;;;;;;;;;5026936;28;20931;-71
2022/09/28 14:13:41;;;;;;;1999.90;999.90;;;;;;;;;;5042873;28;20256;-72
2022/09/28 14:16:22;;;;;;;1999.90;999.90;;;;;;;;;;5033753;28;20286;-71
2022/09/28 14:18:51;;;;;;;1999.90;999.90;;;;;;;;;;5022986;28;20239;-71
2022/09/28 14:21:31;;;;;;;1999.90;999.90;;;;;;;;;;5037077;28;20406;-70
2022/09/28 14:24:06;;;;;;;1999.90;999.90;;;;;;;;;;5025623;28;20236;-71
2022/09/28 14:26:49;;;;;;;1999.90;999.90;;;;;;;;;;5044980;28;20232;-71
2022/09/28 14:29:27;;;;;;;1999.90;999.90;;;;;;;;;;5009548;28;20228;-70